Aeroporto :
LOGIN :

Iscrizione | Disclaimer

   EN    FR    IT 

 










Sommario :    VFR   VFR Marginale   IFR   IFR Intensivo   IFR Molto Intensivo
Visibilità : 
Base nubi : 
>= 8 km
>= 3000ft
5 / 8 km
1000 / 3000 ft
1500m / 5 km
500 / 1000 ft
800 / 1500m
200 / 500 ft
< 800m
< 200 ft
Simboli :   Temporali  Nebbia  Neve Forte  Precipitazioni Forti  Vento > 20 kt
SIGMETs :   Varie  Temporali  Ghiacco  Turbolenza  Onda orograficha  Ceneri Vulcaniche






- Altitudine del aeroporto : 204 ft
- Codice IATA : AGF


LFBA - Agen

ULTIMO METAR :
  • 050130Z AUTO VRB02KT 9999 OVC010 04/03 Q0995

METARs OBSOLETI :
  • 050100Z AUTO 26003KT 190V340 9999 SCT010 BKN060 BKN072 04/02 Q0995
  • 050030Z AUTO 28005KT 9999 FEW010 SCT074 OVC092 04/03 Q0995
  • 050000Z AUTO 24004KT 170V280 CAVOK 04/03 Q0995
  • 042330Z AUTO 23008KT 190V260 CAVOK 04/02 Q0994
  • 042300Z AUTO 23009KT 200V260 CAVOK 04/02 Q0994
  • 042230Z AUTO 24008KT CAVOK 04/02 Q0994

TAF TAF LFBA
Valido dal 04 a 18 ore il 05 a 03 ore UTC


041700Z 0418/0503 26008KT 9999 FEW015 SCT040 BKN130
PROB30
TEMPO 0418/0420 24015G25KT 4000 SHRA BKN015 FEW020CB BKN025TCU



MetMap, La meteo Aeronautica in un colpo d'occhio ! - Copyright ORBIFLY Dicembre 2007 - Disclaimer

ORBIFLY MET'MAP TEAM :

Programmazione e sviluppo : Alexandra Zaïnal
Concezione : Baudouin d'Aumeries
Aiuto per la programmazione : Marc-Olivier Méhu
Supporto tecnico e logistico : Manuel Goepfert
Aiuto per la traduzione : Arnaldo La Scala

Contatto : metmap@orbifly.com




FONTI E CREDITI :

   NOAA